Time;durP1;ratioP1;P1;durP2;ratioP2;P2;SDS_P1;SDS_P2;PMS_P1;PMS_P2;Temp;Humidity;BMP_temperature;BMP_pressure;BME280_temperature;BME280_humidity;BME280_pressure;Samples;Min_cycle;Max_cycle;Signal;HPM_P1;HPM_P2
2022/10/06 00:00:52;;;;;;;8.73;3.42;;;;;;;10.43;100.00;100173.23;1594022;90;20977;-77
2022/10/06 00:03:21;;;;;;;7.95;3.15;;;;;;;10.42;100.00;100183.95;1594100;90;20973;-77
2022/10/06 00:05:50;;;;;;;8.48;3.22;;;;;;;10.42;100.00;100180.39;1593884;90;21202;-78
2022/10/06 00:08:17;;;;;;;6.58;3.30;;;;;;;10.41;100.00;100178.21;1601218;89;21166;-78
2022/10/06 00:10:45;;;;;;;12.47;3.27;;;;;;;10.39;100.00;100176.91;1611558;88;20952;-78
2022/10/06 00:13:12;;;;;;;11.43;2.90;;;;;;;10.35;100.00;100182.73;1611241;89;21582;-77
2022/10/06 00:15:38;;;;;;;7.87;2.98;;;;;;;10.33;100.00;100173.98;1643155;87;21016;-77
2022/10/06 00:18:07;;;;;;;7.60;2.70;;;;;;;10.31;100.00;100172.91;1643343;87;20972;-77
2022/10/06 00:20:33;;;;;;;10.48;3.33;;;;;;;10.30;100.00;100169.91;1643489;87;21807;-77
2022/10/06 00:23:00;;;;;;;7.22;3.10;;;;;;;10.29;100.00;100173.77;1643414;87;20996;-78
2022/10/06 00:25:27;;;;;;;7.58;3.10;;;;;;;10.24;100.00;100174.66;1643223;87;21003;-78
2022/10/06 00:27:54;;;;;;;8.30;3.02;;;;;;;10.21;100.00;100179.37;1643483;87;20964;-78
2022/10/06 00:30:25;;;;;;;8.00;3.42;;;;;;;10.17;100.00;100181.61;1643483;87;21044;-78
2022/10/06 00:32:59;;;;;;;6.25;3.25;;;;;;;10.11;100.00;100175.38;1643358;86;21042;-78
2022/10/06 00:35:31;;;;;;;6.20;3.00;;;;;;;10.09;100.00;100176.78;1643418;87;20952;-78
2022/10/06 00:37:58;;;;;;;9.08;3.37;;;;;;;10.04;100.00;100178.23;1643862;87;21050;-78
2022/10/06 00:40:25;;;;;;;7.92;3.05;;;;;;;10.00;100.00;100177.20;1643599;87;21004;-77
2022/10/06 00:43:04;;;;;;;9.80;3.42;;;;;;;9.94;100.00;100174.52;1643233;87;20948;-77
2022/10/06 00:45:44;;;;;;;9.95;3.45;;;;;;;9.86;100.00;100169.70;1643287;86;21535;-77
2022/10/06 00:48:19;;;;;;;8.48;3.30;;;;;;;9.82;100.00;100166.50;1643345;87;21569;-77
2022/10/06 00:50:46;;;;;;;7.97;3.58;;;;;;;9.77;100.00;100164.65;1643281;87;20972;-77
2022/10/06 00:53:13;;;;;;;7.30;3.55;;;;;;;9.74;100.00;100157.56;1643411;87;20968;-77
2022/10/06 00:55:40;;;;;;;5.62;3.20;;;;;;;9.70;100.00;100157.89;1643426;87;20948;-77
2022/10/06 00:58:07;;;;;;;7.83;3.30;;;;;;;9.65;100.00;100154.66;1643451;87;21102;-77
2022/10/06 01:00:33;;;;;;;12.80;3.35;;;;;;;9.63;100.00;100155.52;1643379;87;21440;-75
2022/10/06 01:03:06;;;;;;;12.63;3.92;;;;;;;9.65;100.00;100155.22;1643495;87;21084;-75
2022/10/06 01:05:36;;;;;;;9.83;3.20;;;;;;;9.67;100.00;100148.89;1642930;87;20925;-74
2022/10/06 01:08:03;;;;;;;14.78;3.60;;;;;;;9.65;100.00;100146.44;1643354;87;20960;-74
2022/10/06 01:10:29;;;;;;;9.95;3.80;;;;;;;9.63;100.00;100150.03;1643276;87;21150;-74
2022/10/06 01:12:57;;;;;;;11.40;3.65;;;;;;;9.63;100.00;100146.48;1643411;87;20957;-74
2022/10/06 01:15:25;;;;;;;16.17;3.87;;;;;;;9.61;100.00;100141.29;1643391;87;20956;-74
2022/10/06 01:18:03;;;;;;;16.15;3.87;;;;;;;9.57;100.00;100134.21;1624680;87;21035;-74
2022/10/06 01:20:30;;;;;;;8.58;3.67;;;;;;;9.55;100.00;100133.69;1643348;87;21593;-74
2022/10/06 01:23:04;;;;;;;8.93;3.20;;;;;;;9.54;100.00;100135.35;1643483;87;21103;-74
2022/10/06 01:25:31;;;;;;;12.78;3.75;;;;;;;9.51;100.00;100127.16;1642954;86;21007;-74
2022/10/06 01:27:58;;;;;;;12.25;3.62;;;;;;;9.50;100.00;100127.45;1643352;87;20984;-74
2022/10/06 01:30:34;;;;;;;13.08;3.20;;;;;;;9.48;100.00;100126.38;1606407;86;20889;-76
2022/10/06 01:33:01;;;;;;;10.72;3.60;;;;;;;9.46;100.00;100127.78;1639574;86;21066;-75
2022/10/06 01:35:28;;;;;;;6.92;3.50;;;;;;;9.44;100.00;100121.78;1642925;87;21785;-75
2022/10/06 01:37:57;;;;;;;11.70;4.10;;;;;;;9.44;100.00;100130.81;1643513;87;21027;-74
2022/10/06 01:40:24;;;;;;;5.12;3.30;;;;;;;9.44;100.00;100127.27;1643449;87;21038;-74
2022/10/06 01:42:51;;;;;;;13.98;3.45;;;;;;;9.44;100.00;100130.00;1642638;87;21621;-75
2022/10/06 01:45:17;;;;;;;8.55;3.58;;;;;;;9.43;100.00;100126.45;1642917;87;21059;-75
2022/10/06 01:47:45;;;;;;;7.50;3.55;;;;;;;9.45;100.00;100131.63;1643346;87;21146;-75
2022/10/06 01:50:12;;;;;;;12.28;3.37;;;;;;;9.45;100.00;100126.16;1643399;87;20960;-75
2022/10/06 01:52:38;;;;;;;9.90;3.52;;;;;;;9.47;100.00;100129.41;1643207;87;20979;-76
2022/10/06 01:55:06;;;;;;;11.90;3.35;;;;;;;9.49;100.00;100125.83;1643174;87;21049;-76
2022/10/06 01:57:40;;;;;;;7.10;3.40;;;;;;;9.49;100.00;100135.42;1643316;87;20885;-76
2022/10/06 02:00:09;;;;;;;10.03;3.47;;;;;;;9.49;100.00;100131.31;1643610;87;22018;-76
2022/10/06 02:02:37;;;;;;;13.48;3.92;;;;;;;9.49;100.00;100132.67;1643557;86;21031;-76
2022/10/06 02:05:04;;;;;;;10.80;3.65;;;;;;;9.46;100.00;100129.97;1643339;87;21015;-75
2022/10/06 02:07:34;;;;;;;12.70;3.70;;;;;;;9.45;100.00;100133.82;1643402;87;20996;-75
2022/10/06 02:10:02;;;;;;;11.35;3.12;;;;;;;9.43;100.00;100131.11;1643205;87;21095;-75
2022/10/06 02:12:31;;;;;;;10.03;3.40;;;;;;;9.42;100.00;100133.03;1626487;87;21125;-75
2022/10/06 02:14:59;;;;;;;12.80;3.40;;;;;;;9.47;100.00;100132.16;1644474;86;20964;-75
2022/10/06 02:17:28;;;;;;;14.40;3.85;;;;;;;9.48;100.00;100132.41;1639153;87;20988;-76
2022/10/06 02:19:54;;;;;;;11.68;3.60;;;;;;;9.47;100.00;100123.38;1638999;87;21033;-76
2022/10/06 02:22:21;;;;;;;13.65;3.22;;;;;;;9.47;100.00;100125.30;1639022;87;21004;-76
2022/10/06 02:24:48;;;;;;;8.45;3.40;;;;;;;9.44;100.00;100125.34;1639313;87;21551;-78
2022/10/06 02:27:14;;;;;;;8.73;3.40;;;;;;;9.43;100.00;100128.37;1639153;87;20945;-76
2022/10/06 02:29:41;;;;;;;10.25;3.58;;;;;;;9.40;100.00;100127.59;1639158;87;21550;-75
2022/10/06 02:32:09;;;;;;;15.25;3.72;;;;;;;9.33;100.00;100122.47;1638632;86;21111;-76
2022/10/06 02:34:38;;;;;;;11.88;3.60;;;;;;;9.27;100.00;100128.56;1639218;86;21642;-76
2022/10/06 02:37:04;;;;;;;8.85;3.55;;;;;;;9.22;100.00;100127.28;1639084;87;21240;-75
2022/10/06 02:39:31;;;;;;;10.48;3.90;;;;;;;9.16;100.00;100127.63;1638983;87;21024;-75
2022/10/06 02:41:58;;;;;;;18.02;4.10;;;;;;;9.12;100.00;100141.09;1639453;87;21550;-75
2022/10/06 02:44:25;;;;;;;8.30;3.95;;;;;;;9.09;100.00;100140.31;1638973;87;21045;-76
2022/10/06 02:46:52;;;;;;;13.70;3.90;;;;;;;9.05;100.00;100137.89;1638643;87;21048;-76
2022/10/06 02:49:19;;;;;;;16.57;5.08;;;;;;;9.01;100.00;100140.13;1639109;86;21171;-76
2022/10/06 02:51:47;;;;;;;10.38;3.75;;;;;;;8.97;100.00;100144.55;1641567;87;20974;-76
2022/10/06 02:54:14;;;;;;;15.43;3.83;;;;;;;8.93;100.00;100146.50;1632636;87;21060;-76
2022/10/06 02:56:41;;;;;;;11.40;4.28;;;;;;;8.88;100.00;100144.38;1639164;87;21040;-76
2022/10/06 02:59:07;;;;;;;11.40;4.25;;;;;;;8.80;100.00;100139.53;1639150;87;21527;-75
2022/10/06 03:01:35;;;;;;;11.80;4.47;;;;;;;8.73;100.00;100140.42;1639488;87;21259;-76
2022/10/06 03:04:03;;;;;;;17.77;5.47;;;;;;;8.64;100.00;100141.63;1640053;86;21054;-77
2022/10/06 03:06:30;;;;;;;15.88;4.70;;;;;;;8.56;100.00;100135.41;1639336;87;20985;-77
2022/10/06 03:09:03;;;;;;;23.00;5.83;;;;;;;8.47;100.00;100143.97;1641292;86;21036;-78
2022/10/06 03:11:32;;;;;;;11.83;5.20;;;;;;;8.40;100.00;100136.64;1639561;87;21523;-78
2022/10/06 03:13:59;;;;;;;11.65;5.40;;;;;;;8.34;100.00;100149.55;1639548;85;21895;-76
2022/10/06 03:16:29;;;;;;;10.10;4.87;;;;;;;8.29;100.00;100149.01;1642229;87;21044;-77
2022/10/06 03:18:58;;;;;;;17.23;5.17;;;;;;;8.29;100.00;100149.56;1617032;88;21038;-76
2022/10/06 03:21:29;;;;;;;14.33;5.30;;;;;;;8.22;100.00;100141.67;1651931;86;20999;-77
2022/10/06 03:23:56;;;;;;;11.43;4.62;;;;;;;8.15;100.00;100139.00;1619892;88;20995;-80
2022/10/06 03:26:34;;;;;;;13.28;4.67;;;;;;;8.10;100.00;100137.67;1631409;86;21679;-78
2022/10/06 03:29:02;;;;;;;11.78;5.55;;;;;;;8.01;100.00;100144.33;1616345;88;21502;-79
2022/10/06 03:31:30;;;;;;;17.40;5.03;;;;;;;7.99;100.00;100142.97;1647967;86;20958;-77
2022/10/06 03:33:57;;;;;;;11.18;5.72;;;;;;;7.98;100.00;100148.99;1615710;86;21607;-77
2022/10/06 03:36:31;;;;;;;18.67;4.95;;;;;;;7.94;100.00;100144.64;1652782;86;21018;-82
2022/10/06 03:38:58;;;;;;;14.58;5.60;;;;;;;7.93;100.00;100151.76;1623826;88;21158;-79
2022/10/06 03:41:28;;;;;;;14.65;5.45;;;;;;;7.90;100.00;100155.06;1651983;86;21021;-75
2022/10/06 03:43:56;;;;;;;7.87;4.80;;;;;;;7.85;100.00;100160.55;1619471;88;21052;-77
2022/10/06 03:46:26;;;;;;;12.68;5.17;;;;;;;7.77;100.00;100157.05;1651888;86;21531;-84
2022/10/06 03:48:52;;;;;;;8.63;4.83;;;;;;;7.69;100.00;100157.64;1619185;88;20951;-85
2022/10/06 03:51:26;;;;;;;14.78;6.47;;;;;;;7.58;100.00;100159.61;1652506;86;21096;-76
2022/10/06 03:53:53;;;;;;;12.53;5.15;;;;;;;7.52;100.00;100156.63;1619051;88;21121;-81
2022/10/06 03:56:32;;;;;;;15.05;4.78;;;;;;;7.42;100.00;100164.35;1652037;86;20948;-76
2022/10/06 03:59:01;;;;;;;10.10;4.97;;;;;;;7.35;100.00;100160.28;1619351;87;21054;-75
2022/10/06 04:01:34;;;;;;;17.02;5.70;;;;;;;7.24;100.00;100163.60;1652415;86;21625;-76
2022/10/06 04:04:04;;;;;;;11.33;6.03;;;;;;;7.16;100.00;100168.27;1619667;88;21908;-76
2022/10/06 04:06:34;;;;;;;16.12;6.67;;;;;;;7.11;100.00;100161.45;1651968;86;21510;-76
2022/10/06 04:09:01;;;;;;;10.45;5.62;;;;;;;7.13;100.00;100164.18;1619907;88;21057;-78
2022/10/06 04:11:33;;;;;;;15.00;5.22;;;;;;;7.15;100.00;100168.81;1652172;86;20996;-83
2022/10/06 04:14:03;;;;;;;10.93;5.25;;;;;;;7.12;100.00;100168.55;1619930;87;21038;-80
2022/10/06 04:16:34;;;;;;;10.40;5.92;;;;;;;7.08;100.00;100159.28;1657325;86;21883;-84
2022/10/06 04:19:06;;;;;;;8.43;5.15;;;;;;;7.01;100.00;100166.40;1637952;87;20929;-80
2022/10/06 04:21:36;;;;;;;15.45;6.65;;;;;;;6.95;100.00;100172.96;1593402;90;21102;-83
2022/10/06 04:24:05;;;;;;;15.40;5.92;;;;;;;6.90;100.00;100164.81;1617655;88;21544;-75
2022/10/06 04:26:36;;;;;;;13.18;6.10;;;;;;;6.90;100.00;100162.91;1594932;88;21100;-78
2022/10/06 04:29:02;;;;;;;18.73;6.92;;;;;;;6.93;100.00;100167.78;1594115;90;21166;-77
2022/10/06 04:31:32;;;;;;;17.23;6.90;;;;;;;6.95;100.00;100172.96;1598919;89;21048;-78
2022/10/06 04:34:00;;;;;;;17.27;7.87;;;;;;;6.98;100.00;100170.23;1598263;89;21099;-77
2022/10/06 04:36:34;;;;;;;16.73;6.92;;;;;;;7.06;100.00;100170.48;1598361;89;21483;-80
2022/10/06 04:39:03;;;;;;;24.20;7.50;;;;;;;7.16;100.00;100171.81;1599141;89;20980;-85
2022/10/06 04:41:37;;;;;;;13.85;6.83;;;;;;;7.32;100.00;100170.41;1606789;89;21247;-78
2022/10/06 04:44:03;;;;;;;9.63;5.93;;;;;;;7.43;100.00;100175.55;1585790;89;21494;-79
2022/10/06 04:46:31;;;;;;;12.58;6.05;;;;;;;7.53;100.00;100184.22;1612018;88;21555;-80
2022/10/06 04:48:59;;;;;;;10.13;5.95;;;;;;;7.60;100.00;100181.45;1601702;88;21048;-85
2022/10/06 04:51:28;;;;;;;17.82;6.05;;;;;;;7.65;100.00;100184.71;1592589;89;21402;-80
2022/10/06 04:53:56;;;;;;;15.72;5.42;;;;;;;7.71;100.00;100181.41;1594620;88;21282;-79
2022/10/06 04:56:28;;;;;;;16.10;5.05;;;;;;;7.80;100.00;100181.91;1594580;88;20973;-83
2022/10/06 04:58:56;;;;;;;13.30;5.20;;;;;;;7.94;100.00;100181.55;1611436;89;20878;-76
2022/10/06 05:01:29;;;;;;;15.13;5.37;;;;;;;8.11;100.00;100177.59;1596690;89;21050;-76
2022/10/06 05:03:58;;;;;;;15.43;5.67;;;;;;;8.27;100.00;100177.75;1592197;89;21115;-72
2022/10/06 05:06:39;;;;;;;12.98;6.33;;;;;;;8.39;100.00;100175.50;1616949;87;21148;-76
2022/10/06 05:09:12;;;;;;;14.60;4.90;;;;;;;8.46;100.00;100178.73;1623133;87;21516;-73
2022/10/06 05:11:42;;;;;;;12.47;5.10;;;;;;;8.51;100.00;100176.50;1550835;92;21046;-74
2022/10/06 05:14:11;;;;;;;11.85;4.80;;;;;;;8.63;100.00;100178.86;1563248;92;21650;-79
2022/10/06 05:16:39;;;;;;;12.47;5.10;;;;;;;8.74;100.00;100180.38;1638879;86;21012;-76
2022/10/06 05:19:08;;;;;;;10.98;4.28;;;;;;;8.84;100.00;100178.91;1617084;88;21118;-77
2022/10/06 05:21:37;;;;;;;10.43;4.47;;;;;;;8.94;100.00;100184.29;1645962;87;20936;-76
2022/10/06 05:24:05;;;;;;;9.43;4.50;;;;;;;9.06;100.00;100188.82;1645844;86;21016;-77
2022/10/06 05:26:35;;;;;;;17.37;4.85;;;;;;;9.17;100.00;100187.61;1645470;87;21067;-77
2022/10/06 05:29:03;;;;;;;11.70;4.12;;;;;;;9.27;100.00;100187.46;1614452;89;21046;-77
2022/10/06 05:31:37;;;;;;;9.60;3.75;;;;;;;9.38;100.00;100186.80;1614251;87;21121;-77
2022/10/06 05:34:03;;;;;;;9.98;3.85;;;;;;;9.48;100.00;100185.86;1612498;89;21515;-77
2022/10/06 05:36:31;;;;;;;7.95;3.85;;;;;;;9.56;100.00;100186.58;1615455;87;21537;-77
2022/10/06 05:38:58;;;;;;;11.53;3.27;;;;;;;9.67;100.00;100183.97;1591433;90;21534;-77
2022/10/06 05:41:31;;;;;;;8.43;3.15;;;;;;;9.76;100.00;100183.58;1601990;89;21052;-84
2022/10/06 05:44:00;;;;;;;11.25;3.25;;;;;;;9.88;100.00;100185.86;1618938;88;20970;-74
2022/10/06 05:46:29;;;;;;;20.57;3.90;;;;;;;9.99;100.00;100191.46;1602163;89;20991;-71
2022/10/06 05:49:02;;;;;;;11.33;3.27;;;;;;;10.10;100.00;100192.13;1619583;88;21542;-73
2022/10/06 05:51:33;;;;;;;10.53;3.35;;;;;;;10.19;100.00;100188.98;1619053;87;21101;-73
2022/10/06 05:54:01;;;;;;;9.08;3.52;;;;;;;10.29;100.00;100192.98;1592292;90;21567;-74
2022/10/06 05:56:34;;;;;;;7.97;3.35;;;;;;;10.36;100.00;100193.42;1592270;90;21115;-77
2022/10/06 05:59:01;;;;;;;14.65;3.70;;;;;;;10.45;100.00;100194.34;1592067;89;21022;-79
2022/10/06 06:01:35;;;;;;;7.72;3.10;;;;;;;10.54;100.00;100198.59;1602943;89;21023;-77
2022/10/06 06:04:06;;;;;;;9.10;3.08;;;;;;;10.62;100.00;100195.72;1584659;89;21130;-80
2022/10/06 06:06:43;;;;;;;9.00;3.12;;;;;;;10.72;100.00;100199.67;1619132;87;21096;-76
2022/10/06 06:09:15;;;;;;;8.18;3.47;;;;;;;10.81;100.00;100201.98;1619370;88;21178;-75
2022/10/06 06:11:47;;;;;;;12.05;3.10;;;;;;;10.93;100.00;100212.50;1618178;88;20974;-76
2022/10/06 06:14:17;;;;;;;9.03;3.00;;;;;;;11.02;100.00;100212.84;1617988;88;21058;-75
2022/10/06 06:16:45;;;;;;;3.58;2.42;;;;;;;11.13;99.71;100207.98;1616567;87;21043;-75
2022/10/06 06:19:13;;;;;;;9.00;3.50;;;;;;;11.21;98.42;100212.78;1580111;89;21134;-75
2022/10/06 06:21:41;;;;;;;12.03;3.25;;;;;;;11.30;97.83;100216.45;1615482;87;21574;-80
2022/10/06 06:24:08;;;;;;;5.92;2.83;;;;;;;11.40;96.53;100215.44;1597541;89;21047;-78
2022/10/06 06:26:36;;;;;;;5.47;2.70;;;;;;;11.46;96.73;100216.41;1647768;86;20996;-82
2022/10/06 06:29:05;;;;;;;7.42;3.20;;;;;;;11.55;96.20;100226.92;1615737;88;21142;-75
2022/10/06 06:31:37;;;;;;;8.63;2.93;;;;;;;11.63;95.06;100225.95;1597450;89;21111;-73
2022/10/06 06:34:06;;;;;;;7.20;3.20;;;;;;;11.70;95.04;100218.92;1596314;89;21031;-76
2022/10/06 06:36:39;;;;;;;12.88;3.22;;;;;;;11.79;95.18;100221.24;1614616;86;20959;-73
2022/10/06 06:39:10;;;;;;;6.25;3.40;;;;;;;11.91;95.08;100220.72;1628900;86;20958;-77
2022/10/06 06:41:41;;;;;;;6.15;2.58;;;;;;;12.04;94.13;100218.51;1629704;87;21086;-79
2022/10/06 06:44:10;;;;;;;5.40;2.65;;;;;;;12.15;92.94;100219.87;1659942;85;21102;-75
2022/10/06 06:46:40;;;;;;;12.43;3.58;;;;;;;12.32;93.37;100221.98;1664292;85;21119;-76
2022/10/06 06:49:10;;;;;;;5.30;2.47;;;;;;;12.73;91.62;100216.28;1658714;86;20978;-75
2022/10/06 06:51:43;;;;;;;8.03;2.50;;;;;;;13.31;90.71;100212.56;1648187;86;21535;-79
2022/10/06 06:54:11;;;;;;;16.02;3.35;;;;;;;13.98;87.26;100206.75;1649218;87;21022;-76
2022/10/06 06:56:41;;;;;;;9.55;2.65;;;;;;;14.57;84.24;100211.83;1645573;86;20963;-76
2022/10/06 06:59:10;;;;;;;6.08;2.70;;;;;;;15.01;80.58;100205.91;1630764;87;21181;-73
2022/10/06 07:01:44;;;;;;;10.60;2.75;;;;;;;15.32;78.33;100206.20;1649376;86;20932;-72
2022/10/06 07:04:13;;;;;;;12.47;2.87;;;;;;;15.58;77.31;100205.55;1649427;87;20979;-73
2022/10/06 07:06:41;;;;;;;9.83;2.30;;;;;;;15.91;75.80;100201.52;1649745;86;21609;-75
2022/10/06 07:09:09;;;;;;;14.23;2.77;;;;;;;16.28;73.16;100207.27;1630694;87;20880;-74
2022/10/06 07:11:38;;;;;;;8.80;2.92;;;;;;;16.58;72.31;100205.23;1649486;87;21432;-74
2022/10/06 07:14:10;;;;;;;10.80;2.45;;;;;;;16.92;71.71;100206.28;1649345;86;20943;-74
2022/10/06 07:25:25;;;;;;;10.18;2.75;;;;;;;17.88;65.67;100201.78;1645307;87;21248;-73
2022/10/06 07:27:53;;;;;;;10.28;2.47;;;;;;;18.07;64.24;100203.34;1645010;86;20954;-78
2022/10/06 07:30:27;;;;;;;5.22;2.15;;;;;;;18.26;63.03;100204.13;1644193;86;20910;-73
2022/10/06 07:33:03;;;;;;;5.58;2.35;;;;;;;18.31;62.21;100198.32;1645017;85;20964;-72
2022/10/06 07:35:32;;;;;;;4.70;2.17;;;;;;;18.41;62.74;100193.08;1645266;87;21016;-69
2022/10/06 07:38:06;;;;;;;5.62;2.15;;;;;;;18.58;62.39;100192.53;1645173;86;21521;-71
2022/10/06 07:40:32;;;;;;;5.75;2.40;;;;;;;18.71;60.32;100201.08;1645404;86;20977;-70
2022/10/06 07:42:59;;;;;;;4.72;2.10;;;;;;;18.76;61.14;100196.66;1645221;87;20993;-74
2022/10/06 07:45:40;;;;;;;7.35;2.35;;;;;;;18.98;59.93;100193.88;1645215;87;20921;-74
2022/10/06 07:48:17;;;;;;;7.80;2.52;;;;;;;19.20;59.72;100198.02;1645282;86;21541;-73
2022/10/06 07:50:49;;;;;;;5.83;2.83;;;;;;;19.39;58.55;100192.55;1648271;85;21520;-72
2022/10/06 07:53:18;;;;;;;9.38;2.40;;;;;;;19.56;57.56;100193.61;1613696;87;20889;-73
2022/10/06 07:55:48;;;;;;;5.67;2.08;;;;;;;19.63;56.85;100191.01;1604660;89;20960;-74
2022/10/06 07:58:23;;;;;;;10.00;2.02;;;;;;;19.72;56.89;100188.00;1604859;89;20964;-75
2022/10/06 08:00:53;;;;;;;5.30;2.25;;;;;;;19.84;56.13;100191.27;1600403;88;21035;-74
2022/10/06 08:03:21;;;;;;;6.72;2.47;;;;;;;19.88;54.77;100187.39;1596022;90;21668;-71
2022/10/06 08:05:51;;;;;;;5.65;1.95;;;;;;;19.88;55.73;100186.58;1596216;88;20924;-73
2022/10/06 08:08:19;;;;;;;7.30;1.98;;;;;;;20.04;55.49;100184.57;1599807;89;20991;-78
2022/10/06 08:10:52;;;;;;;8.43;2.20;;;;;;;20.26;54.22;100178.27;1614604;88;20965;-70
2022/10/06 08:13:20;;;;;;;4.08;1.80;;;;;;;20.40;54.19;100180.59;1604608;89;21079;-71
2022/10/06 08:15:49;;;;;;;4.55;2.42;;;;;;;20.53;53.28;100177.88;1604663;89;21118;-73
2022/10/06 08:18:17;;;;;;;6.28;2.08;;;;;;;20.63;52.53;100175.09;1605957;89;21514;-74
2022/10/06 08:20:45;;;;;;;6.00;2.00;;;;;;;20.59;53.34;100170.02;1607996;89;21494;-71
2022/10/06 08:23:12;;;;;;;3.90;1.75;;;;;;;20.66;52.52;100164.59;1606502;89;20976;-71
2022/10/06 08:25:42;;;;;;;9.63;2.55;;;;;;;20.78;52.63;100170.00;1599320;89;21023;-72
2022/10/06 08:28:11;;;;;;;3.95;2.22;;;;;;;20.82;52.58;100163.07;1599430;89;21475;-73
2022/10/06 08:30:38;;;;;;;5.33;1.90;;;;;;;20.89;52.43;100162.62;1599453;89;21444;-72
2022/10/06 08:33:05;;;;;;;3.60;2.05;;;;;;;21.10;53.44;100166.39;1599370;88;21550;-71
2022/10/06 08:35:32;;;;;;;2.95;1.77;;;;;;;21.36;51.94;100157.30;1599440;89;21579;-72
2022/10/06 08:37:59;;;;;;;9.05;2.08;;;;;;;21.52;51.39;100157.94;1599389;89;21031;-73
2022/10/06 08:40:26;;;;;;;6.65;2.02;;;;;;;21.77;50.59;100154.73;1599649;89;21118;-77
2022/10/06 08:42:55;;;;;;;4.80;1.98;;;;;;;21.79;49.25;100153.77;1599049;88;21095;-73
2022/10/06 08:45:34;;;;;;;4.85;1.70;;;;;;;21.65;48.65;100151.56;1598800;89;21040;-73
2022/10/06 08:48:13;;;;;;;8.15;2.37;;;;;;;21.53;50.12;100149.78;1599066;88;21072;-75
2022/10/06 08:51:07;;;;;;;6.05;2.33;;;;;;;21.71;49.31;100153.66;1598823;89;21048;-74
2022/10/06 08:53:50;;;;;;;6.25;2.00;;;;;;;21.89;49.30;100155.33;1598857;89;21739;-75
2022/10/06 08:56:19;;;;;;;7.37;2.00;;;;;;;21.93;48.20;100150.59;1598430;88;21041;-75
2022/10/06 08:59:02;;;;;;;4.47;1.95;;;;;;;21.85;48.76;100143.88;1598239;89;21551;-72
2022/10/06 09:01:40;;;;;;;6.60;1.52;;;;;;;21.93;49.50;100152.59;1598483;89;21087;-72
2022/10/06 09:04:06;;;;;;;5.60;2.20;;;;;;;21.90;47.90;100143.55;1598388;89;21097;-72
2022/10/06 09:07:02;;;;;;;4.90;2.00;;;;;;;21.80;48.00;100148.39;1598759;89;21100;-73
2022/10/06 09:10:03;;;;;;;6.85;1.75;;;;;;;21.76;48.45;100149.73;1598827;88;21024;-73
2022/10/06 09:12:50;;;;;;;6.35;2.10;;;;;;;21.84;48.57;100146.46;1598744;89;21071;-73
2022/10/06 09:15:35;;;;;;;4.35;2.12;;;;;;;22.03;48.05;100147.73;1598969;89;21048;-73
2022/10/06 09:18:30;;;;;;;4.87;1.77;;;;;;;22.17;48.08;100146.53;1596843;89;21051;-73
2022/10/06 09:21:05;;;;;;;5.33;1.98;;;;;;;22.35;46.95;100144.78;1595836;90;21783;-68
2022/10/06 09:23:49;;;;;;;3.67;1.90;;;;;;;22.49;46.21;100148.34;1643378;87;20973;-72
2022/10/06 09:26:22;;;;;;;5.60;2.02;;;;;;;22.44;46.02;100147.88;1644322;86;21735;-76
2022/10/06 09:28:49;;;;;;;6.35;1.95;;;;;;;22.38;45.67;100146.01;1640403;87;21581;-75
2022/10/06 09:31:28;;;;;;;7.92;1.90;;;;;;;22.34;46.20;100151.56;1640552;86;21045;-75
2022/10/06 09:34:06;;;;;;;4.40;2.12;;;;;;;22.34;45.87;100150.16;1640447;87;21742;-73
2022/10/06 09:36:54;;;;;;;4.08;1.95;;;;;;;22.36;45.65;100153.38;1639303;86;20918;-74
2022/10/06 09:39:25;;;;;;;8.20;2.10;;;;;;;22.34;45.24;100153.55;1608431;89;21072;-78
2022/10/06 09:41:50;;;;;;;5.33;1.98;;;;;;;22.27;45.80;100155.66;1573684;91;21143;-76
2022/10/06 09:44:24;;;;;;;6.17;2.20;;;;;;;22.27;45.97;100157.05;1574154;90;21065;-78
2022/10/06 09:46:51;;;;;;;8.73;2.12;;;;;;;22.35;45.67;100151.77;1573311;90;21821;-78
2022/10/06 09:49:24;;;;;;;4.50;2.20;;;;;;;22.50;45.38;100150.55;1599951;88;21597;-77
2022/10/06 09:52:04;;;;;;;10.80;2.35;;;;;;;22.72;43.86;100155.17;1600423;89;21036;-76
2022/10/06 09:54:33;;;;;;;;;;;;;;;22.74;42.94;100153.61;1602281;88;21027;-75
2022/10/06 09:57:11;;;;;;;5.15;1.85;;;;;;;22.83;43.95;100149.73;1600106;89;20193;-76
2022/10/06 09:59:44;;;;;;;2.85;1.90;;;;;;;23.00;42.17;100147.71;1572267;90;21534;-79
2022/10/06 10:02:39;;;;;;;5.90;2.37;;;;;;;22.92;42.13;100148.83;1640574;87;21066;-72
2022/10/06 10:05:20;;;;;;;4.60;2.02;;;;;;;22.81;42.50;100145.91;1640933;87;21517;-75
2022/10/06 10:08:05;;;;;;;5.22;1.87;;;;;;;22.82;42.68;100146.13;1640164;86;21011;-77
2022/10/06 10:10:34;;;;;;;4.03;1.72;;;;;;;22.79;42.70;100152.48;1609486;88;20956;-74
2022/10/06 10:12:59;;;;;;;7.85;2.08;;;;;;;22.89;42.25;100140.60;1574156;91;21202;-73
2022/10/06 10:15:30;;;;;;;6.72;2.08;;;;;;;22.90;43.09;100143.61;1600700;89;21005;-73
2022/10/06 10:18:04;;;;;;;5.35;2.10;;;;;;;23.05;43.64;100136.16;1607325;88;20918;-73
2022/10/06 10:20:36;;;;;;;3.52;1.52;;;;;;;23.33;42.64;100142.00;1603760;89;21007;-74
2022/10/06 10:23:32;;;;;;;2.90;1.45;;;;;;;23.45;42.29;100142.89;1573257;89;20972;-73
2022/10/06 10:26:25;;;;;;;4.92;1.77;;;;;;;23.43;42.22;100134.88;1584029;89;21094;-75
2022/10/06 10:29:20;;;;;;;3.65;1.95;;;;;;;23.43;41.67;100127.06;1621447;88;21112;-77
2022/10/06 10:32:16;;;;;;;6.37;2.50;;;;;;;23.46;41.40;100131.29;1621374;88;20919;-73
2022/10/06 10:35:01;;;;;;;3.80;1.67;;;;;;;23.45;40.99;100126.08;1652100;86;21447;-75
2022/10/06 10:37:45;;;;;;;8.15;2.17;;;;;;;23.35;40.88;100126.20;1645183;87;20908;-75
2022/10/06 10:40:36;;;;;;;3.70;1.80;;;;;;;23.37;42.98;100131.63;1637170;86;21153;-77
2022/10/06 10:43:31;;;;;;;7.95;1.98;;;;;;;23.69;41.07;100133.87;1629199;87;21595;-75
2022/10/06 10:46:18;;;;;;;8.23;1.87;;;;;;;23.73;41.47;100137.50;1646041;87;21067;-74
2022/10/06 10:48:56;;;;;;;3.17;1.80;;;;;;;23.81;41.46;100134.95;1646119;87;21059;-77
2022/10/06 10:51:33;;;;;;;7.05;1.98;;;;;;;23.97;40.79;100131.84;1645980;86;21075;-76
2022/10/06 10:54:06;;;;;;;6.72;2.15;;;;;;;23.98;39.11;100134.25;1646477;87;21189;-78
2022/10/06 10:56:33;;;;;;;2.58;1.65;;;;;;;23.81;39.82;100136.35;1645606;86;21079;-78
2022/10/06 10:59:16;;;;;;;7.30;1.70;;;;;;;23.75;40.13;100131.50;1646242;87;21062;-77
2022/10/06 11:01:59;;;;;;;4.08;1.57;;;;;;;23.90;40.57;100129.00;1646108;87;21016;-75
2022/10/06 11:04:25;;;;;;;5.78;2.05;;;;;;;24.00;39.57;100132.46;1646445;86;21024;-77
2022/10/06 11:07:12;;;;;;;5.42;2.10;;;;;;;24.02;39.47;100125.27;1646508;86;21313;-74
2022/10/06 11:10:01;;;;;;;3.80;1.98;;;;;;;24.09;39.44;100121.70;1646751;87;20972;-73
2022/10/06 11:12:53;;;;;;;5.72;2.10;;;;;;;24.19;41.23;100115.93;1646844;86;21066;-72
2022/10/06 11:15:46;;;;;;;5.23;1.70;;;;;;;24.41;40.04;100119.63;1647069;87;20979;-72
2022/10/06 11:18:56;;;;;;;4.65;1.90;;;;;;;24.43;40.69;100118.64;1646443;86;21364;-71
2022/10/06 11:21:58;;;;;;;5.22;1.98;;;;;;;24.63;39.48;100122.11;1635255;87;21257;-75
2022/10/06 11:24:54;;;;;;;4.65;1.82;;;;;;;24.80;39.45;100115.54;1635322;87;21474;-74
2022/10/06 11:27:50;;;;;;;4.97;1.80;;;;;;;24.69;39.22;100115.52;1645740;85;21019;-74
2022/10/06 11:30:18;;;;;;;7.30;2.30;;;;;;;24.63;39.86;100117.91;1646342;86;20932;-74
2022/10/06 11:33:02;;;;;;;4.80;1.72;;;;;;;24.71;38.63;100110.91;1620319;87;20945;-79
2022/10/06 11:35:36;;;;;;;7.40;1.87;;;;;;;24.78;39.72;100115.94;1652577;86;21582;-75
2022/10/06 11:38:24;;;;;;;7.17;1.80;;;;;;;24.82;37.52;100106.92;1620105;87;20975;-76
2022/10/06 11:41:25;;;;;;;6.42;2.17;;;;;;;24.82;39.28;100112.54;1652868;86;21070;-75
2022/10/06 11:44:14;;;;;;;6.33;1.93;;;;;;;24.82;38.03;100109.73;1620351;87;20998;-75
2022/10/06 11:47:05;;;;;;;5.22;1.87;;;;;;;24.68;38.11;100109.70;1652889;86;21004;-74
2022/10/06 11:49:45;;;;;;;3.85;1.75;;;;;;;24.74;39.23;100112.31;1620732;88;21126;-72
2022/10/06 11:52:17;;;;;;;5.15;2.00;;;;;;;24.92;38.41;100111.72;1652650;86;20920;-74
2022/10/06 11:54:56;;;;;;;4.60;1.60;;;;;;;24.95;38.39;100105.31;1620346;88;20911;-75